Archival Weather

Norman Y Mineta San Jose Intl

San Jose, California (KSJC)

Report from: Thursday, February 8, 2024 2:53 AM PST
Current time: Saturday, June 22, 2024 2:01 AM PDT

Current weather – Weather history – Daily summaries
Weather forecast

Temperature7.2°C (45.0°F)
Wind chill5.9°C (42.6°F)
Dew point2.2°C (36.0°F)
Winds 4 kts (2.1 m/s, 4.6 mph) Southwest (220°)
Visibility10 mi. (16.1 km)
Clouds Sky clear
Altimeter29.92 in.Hg (1013 mB)
Relative humidity71 %
Density altitude-830 ft. (-253 m)
Sea-level pressure101.3 kPa (1013 mB, 29.92 in.Hg)
Remarks Fully automated report
Automated weather observing station with precipitation discriminator
Flight conditions Visual Meteorological Conditions
Raw dataKSJC 081053Z AUTO 22004KT 10SM CLR 07/02 A2992 RMK AO2 SLP132 T00720022
An error has occurred. This application may no longer respond until reloaded. Reload 🗙